sensor_id;sensor_type;location;lat;lon;timestamp;temperature;humidity
42031;DHT22;27709;52.036;5.906;2022-07-29T00:01:06;17.30;85.10
42031;DHT22;27709;52.036;5.906;2022-07-29T00:03:31;17.30;85.50
42031;DHT22;27709;52.036;5.906;2022-07-29T00:05:57;17.30;85.40
42031;DHT22;27709;52.036;5.906;2022-07-29T00:08:22;17.30;85.40
42031;DHT22;27709;52.036;5.906;2022-07-29T00:10:48;17.30;85.50
42031;DHT22;27709;52.036;5.906;2022-07-29T00:13:13;17.30;85.90
42031;DHT22;27709;52.036;5.906;2022-07-29T00:15:39;17.30;86.60
42031;DHT22;27709;52.036;5.906;2022-07-29T00:18:05;17.30;86.10
42031;DHT22;27709;52.036;5.906;2022-07-29T00:20:30;17.20;86.30
42031;DHT22;27709;52.036;5.906;2022-07-29T00:22:56;17.20;86.30
42031;DHT22;27709;52.036;5.906;2022-07-29T00:25:22;17.20;86.40
42031;DHT22;27709;52.036;5.906;2022-07-29T00:27:47;17.20;86.90
42031;DHT22;27709;52.036;5.906;2022-07-29T00:30:13;17.20;87.10
42031;DHT22;27709;52.036;5.906;2022-07-29T00:32:39;17.10;87.00
42031;DHT22;27709;52.036;5.906;2022-07-29T00:35:05;17.10;87.30
42031;DHT22;27709;52.036;5.906;2022-07-29T00:37:50;17.10;87.50
42031;DHT22;27709;52.036;5.906;2022-07-29T00:40:15;17.10;87.70
42031;DHT22;27709;52.036;5.906;2022-07-29T00:42:46;17.10;87.90
42031;DHT22;27709;52.036;5.906;2022-07-29T00:45:12;17.10;88.20
42031;DHT22;27709;52.036;5.906;2022-07-29T00:47:38;17.20;88.50
42031;DHT22;27709;52.036;5.906;2022-07-29T00:50:04;17.20;88.50
42031;DHT22;27709;52.036;5.906;2022-07-29T00:52:30;17.20;88.30
42031;DHT22;27709;52.036;5.906;2022-07-29T00:54:56;17.20;88.20
42031;DHT22;27709;52.036;5.906;2022-07-29T00:57:22;17.20;88.50
42031;DHT22;27709;52.036;5.906;2022-07-29T00:59:48;17.10;88.60
42031;DHT22;27709;52.036;5.906;2022-07-29T01:02:13;17.20;88.90
42031;DHT22;27709;52.036;5.906;2022-07-29T01:04:39;17.20;88.70
42031;DHT22;27709;52.036;5.906;2022-07-29T01:07:05;17.20;88.60
42031;DHT22;27709;52.036;5.906;2022-07-29T01:09:32;17.20;88.80
42031;DHT22;27709;52.036;5.906;2022-07-29T01:11:59;17.20;88.90
42031;DHT22;27709;52.036;5.906;2022-07-29T01:14:25;17.20;88.90
42031;DHT22;27709;52.036;5.906;2022-07-29T01:17:02;17.20;89.00
42031;DHT22;27709;52.036;5.906;2022-07-29T01:19:43;17.10;89.00
42031;DHT22;27709;52.036;5.906;2022-07-29T01:30:12;16.90;90.00
42031;DHT22;27709;52.036;5.906;2022-07-29T01:32:39;16.90;90.10
42031;DHT22;27709;52.036;5.906;2022-07-29T01:37:45;16.90;90.10
42031;DHT22;27709;52.036;5.906;2022-07-29T01:40:27;17.00;90.10
42031;DHT22;27709;52.036;5.906;2022-07-29T01:42:55;16.90;90.00
42031;DHT22;27709;52.036;5.906;2022-07-29T01:45:37;16.80;90.10
42031;DHT22;27709;52.036;5.906;2022-07-29T01:48:11;16.90;90.20
42031;DHT22;27709;52.036;5.906;2022-07-29T01:50:48;16.80;90.20
42031;DHT22;27709;52.036;5.906;2022-07-29T01:53:24;16.90;90.30
42031;DHT22;27709;52.036;5.906;2022-07-29T01:55:51;16.90;90.30
42031;DHT22;27709;52.036;5.906;2022-07-29T01:58:19;16.90;90.30
42031;DHT22;27709;52.036;5.906;2022-07-29T02:00:45;16.80;90.30
42031;DHT22;27709;52.036;5.906;2022-07-29T02:03:13;16.80;90.30
42031;DHT22;27709;52.036;5.906;2022-07-29T02:05:41;16.80;90.40
42031;DHT22;27709;52.036;5.906;2022-07-29T02:08:08;16.80;90.50
42031;DHT22;27709;52.036;5.906;2022-07-29T02:10:36;16.80;90.50
42031;DHT22;27709;52.036;5.906;2022-07-29T02:13:03;16.80;90.50
42031;DHT22;27709;52.036;5.906;2022-07-29T02:15:32;16.80;90.40
42031;DHT22;27709;52.036;5.906;2022-07-29T02:18:16;16.80;90.30
42031;DHT22;27709;52.036;5.906;2022-07-29T02:20:48;16.80;90.40
42031;DHT22;27709;52.036;5.906;2022-07-29T02:23:17;16.80;90.50
42031;DHT22;27709;52.036;5.906;2022-07-29T02:25:45;16.80;90.50
42031;DHT22;27709;52.036;5.906;2022-07-29T02:28:12;16.80;90.90
42031;DHT22;27709;52.036;5.906;2022-07-29T02:30:40;16.70;91.00
42031;DHT22;27709;52.036;5.906;2022-07-29T02:33:08;16.60;91.30
42031;DHT22;27709;52.036;5.906;2022-07-29T02:35:35;16.60;91.60
42031;DHT22;27709;52.036;5.906;2022-07-29T02:38:02;16.60;91.70
42031;DHT22;27709;52.036;5.906;2022-07-29T02:40:47;16.50;91.80
42031;DHT22;27709;52.036;5.906;2022-07-29T02:43:14;16.50;92.00
42031;DHT22;27709;52.036;5.906;2022-07-29T02:45:40;16.50;92.10
42031;DHT22;27709;52.036;5.906;2022-07-29T02:48:10;16.40;92.40
42031;DHT22;27709;52.036;5.906;2022-07-29T02:50:44;16.40;92.50
42031;DHT22;27709;52.036;5.906;2022-07-29T02:53:21;16.40;92.60
42031;DHT22;27709;52.036;5.906;2022-07-29T02:55:59;16.30;92.60
42031;DHT22;27709;52.036;5.906;2022-07-29T02:58:42;16.40;92.70
42031;DHT22;27709;52.036;5.906;2022-07-29T03:01:16;16.40;92.80
42031;DHT22;27709;52.036;5.906;2022-07-29T03:03:44;16.40;92.90
42031;DHT22;27709;52.036;5.906;2022-07-29T03:06:13;16.40;93.00
42031;DHT22;27709;52.036;5.906;2022-07-29T03:08:39;16.40;92.90
42031;DHT22;27709;52.036;5.906;2022-07-29T03:11:05;16.40;92.80
42031;DHT22;27709;52.036;5.906;2022-07-29T03:13:32;16.40;92.70
42031;DHT22;27709;52.036;5.906;2022-07-29T03:15:58;16.40;92.80
42031;DHT22;27709;52.036;5.906;2022-07-29T03:18:25;16.40;93.10
42031;DHT22;27709;52.036;5.906;2022-07-29T03:20:51;16.30;92.90
42031;DHT22;27709;52.036;5.906;2022-07-29T03:23:21;16.30;93.00
42031;DHT22;27709;52.036;5.906;2022-07-29T03:25:49;16.20;93.30
42031;DHT22;27709;52.036;5.906;2022-07-29T03:28:15;16.10;93.60
42031;DHT22;27709;52.036;5.906;2022-07-29T03:30:41;16.00;93.90
42031;DHT22;27709;52.036;5.906;2022-07-29T03:33:06;16.00;94.00
42031;DHT22;27709;52.036;5.906;2022-07-29T03:35:32;15.90;94.20
42031;DHT22;27709;52.036;5.906;2022-07-29T03:37:58;15.90;94.30
42031;DHT22;27709;52.036;5.906;2022-07-29T03:40:54;15.90;94.50
42031;DHT22;27709;52.036;5.906;2022-07-29T03:43:21;15.90;94.70
42031;DHT22;27709;52.036;5.906;2022-07-29T03:45:51;15.90;94.70
42031;DHT22;27709;52.036;5.906;2022-07-29T03:48:20;16.00;94.90
42031;DHT22;27709;52.036;5.906;2022-07-29T03:50:46;16.00;95.00
42031;DHT22;27709;52.036;5.906;2022-07-29T03:53:13;16.00;95.10
42031;DHT22;27709;52.036;5.906;2022-07-29T03:55:44;16.00;95.20
42031;DHT22;27709;52.036;5.906;2022-07-29T03:58:12;15.90;95.40
42031;DHT22;27709;52.036;5.906;2022-07-29T04:00:38;15.80;95.80
42031;DHT22;27709;52.036;5.906;2022-07-29T04:03:05;15.70;95.80
42031;DHT22;27709;52.036;5.906;2022-07-29T04:05:31;15.70;96.00
42031;DHT22;27709;52.036;5.906;2022-07-29T04:07:56;15.80;96.10
42031;DHT22;27709;52.036;5.906;2022-07-29T04:10:22;15.80;96.10
42031;DHT22;27709;52.036;5.906;2022-07-29T04:12:48;15.70;96.20
42031;DHT22;27709;52.036;5.906;2022-07-29T04:15:14;15.70;96.40
42031;DHT22;27709;52.036;5.906;2022-07-29T04:17:40;15.70;96.60
42031;DHT22;27709;52.036;5.906;2022-07-29T04:20:05;15.70;96.60
42031;DHT22;27709;52.036;5.906;2022-07-29T04:22:31;15.70;96.90
42031;DHT22;27709;52.036;5.906;2022-07-29T04:24:57;15.70;96.80
42031;DHT22;27709;52.036;5.906;2022-07-29T04:27:22;15.60;96.80
42031;DHT22;27709;52.036;5.906;2022-07-29T04:29:48;15.70;96.80
42031;DHT22;27709;52.036;5.906;2022-07-29T04:32:13;15.70;96.80
42031;DHT22;27709;52.036;5.906;2022-07-29T04:34:39;15.60;96.90
42031;DHT22;27709;52.036;5.906;2022-07-29T04:37:04;15.60;97.00
42031;DHT22;27709;52.036;5.906;2022-07-29T04:39:30;15.60;97.10
42031;DHT22;27709;52.036;5.906;2022-07-29T04:41:55;15.60;97.00
42031;DHT22;27709;52.036;5.906;2022-07-29T04:44:21;15.60;97.10
42031;DHT22;27709;52.036;5.906;2022-07-29T04:46:47;15.50;97.10
42031;DHT22;27709;52.036;5.906;2022-07-29T04:49:13;15.50;97.50
42031;DHT22;27709;52.036;5.906;2022-07-29T04:51:39;15.40;97.60
42031;DHT22;27709;52.036;5.906;2022-07-29T04:54:05;15.30;97.90
42031;DHT22;27709;52.036;5.906;2022-07-29T04:56:31;15.40;98.00
42031;DHT22;27709;52.036;5.906;2022-07-29T04:58:57;15.50;98.20
42031;DHT22;27709;52.036;5.906;2022-07-29T05:01:22;15.60;97.80
42031;DHT22;27709;52.036;5.906;2022-07-29T05:03:48;15.70;97.60
42031;DHT22;27709;52.036;5.906;2022-07-29T05:06:13;15.90;97.40
42031;DHT22;27709;52.036;5.906;2022-07-29T05:08:39;15.90;97.10
42031;DHT22;27709;52.036;5.906;2022-07-29T05:11:04;15.90;97.10
42031;DHT22;27709;52.036;5.906;2022-07-29T05:13:30;15.80;97.10
42031;DHT22;27709;52.036;5.906;2022-07-29T05:15:56;15.80;97.20
42031;DHT22;27709;52.036;5.906;2022-07-29T05:18:24;15.80;97.30
42031;DHT22;27709;52.036;5.906;2022-07-29T05:20:49;15.90;97.20
42031;DHT22;27709;52.036;5.906;2022-07-29T05:23:15;16.00;97.00
42031;DHT22;27709;52.036;5.906;2022-07-29T05:25:40;16.10;97.00
42031;DHT22;27709;52.036;5.906;2022-07-29T05:28:06;16.10;96.90
42031;DHT22;27709;52.036;5.906;2022-07-29T05:30:32;16.00;96.90
42031;DHT22;27709;52.036;5.906;2022-07-29T05:32:57;16.00;97.00
42031;DHT22;27709;52.036;5.906;2022-07-29T05:35:23;15.90;96.80
42031;DHT22;27709;52.036;5.906;2022-07-29T05:37:48;15.80;96.80
42031;DHT22;27709;52.036;5.906;2022-07-29T05:40:14;15.90;96.80
42031;DHT22;27709;52.036;5.906;2022-07-29T05:42:39;15.80;96.90
42031;DHT22;27709;52.036;5.906;2022-07-29T05:45:06;15.80;97.00
42031;DHT22;27709;52.036;5.906;2022-07-29T05:47:31;15.90;97.20
42031;DHT22;27709;52.036;5.906;2022-07-29T05:49:57;15.90;97.20
42031;DHT22;27709;52.036;5.906;2022-07-29T05:52:22;15.90;97.30
42031;DHT22;27709;52.036;5.906;2022-07-29T05:54:48;15.90;97.20
42031;DHT22;27709;52.036;5.906;2022-07-29T05:57:21;15.90;97.10
42031;DHT22;27709;52.036;5.906;2022-07-29T05:59:48;16.00;97.00
42031;DHT22;27709;52.036;5.906;2022-07-29T06:02:13;16.00;97.00
42031;DHT22;27709;52.036;5.906;2022-07-29T06:04:39;16.10;97.00
42031;DHT22;27709;52.036;5.906;2022-07-29T06:07:05;16.20;96.90
42031;DHT22;27709;52.036;5.906;2022-07-29T06:09:31;16.20;96.70
42031;DHT22;27709;52.036;5.906;2022-07-29T06:11:56;16.30;96.70
42031;DHT22;27709;52.036;5.906;2022-07-29T06:14:23;16.30;96.60
42031;DHT22;27709;52.036;5.906;2022-07-29T06:16:48;16.30;96.70
42031;DHT22;27709;52.036;5.906;2022-07-29T06:19:14;16.30;96.70
42031;DHT22;27709;52.036;5.906;2022-07-29T06:21:43;16.30;96.80
42031;DHT22;27709;52.036;5.906;2022-07-29T06:24:10;16.40;96.80
42031;DHT22;27709;52.036;5.906;2022-07-29T06:26:36;16.50;96.70
42031;DHT22;27709;52.036;5.906;2022-07-29T06:29:01;16.60;96.80
42031;DHT22;27709;52.036;5.906;2022-07-29T06:31:27;16.60;96.30
42031;DHT22;27709;52.036;5.906;2022-07-29T06:33:52;16.70;96.40
42031;DHT22;27709;52.036;5.906;2022-07-29T06:36:18;16.80;96.20
42031;DHT22;27709;52.036;5.906;2022-07-29T06:38:44;16.90;96.00
42031;DHT22;27709;52.036;5.906;2022-07-29T06:41:09;17.00;95.90
42031;DHT22;27709;52.036;5.906;2022-07-29T06:43:39;17.00;95.80
42031;DHT22;27709;52.036;5.906;2022-07-29T06:46:16;17.10;95.70
42031;DHT22;27709;52.036;5.906;2022-07-29T06:48:45;17.20;95.60
42031;DHT22;27709;52.036;5.906;2022-07-29T06:51:11;17.40;95.40
42031;DHT22;27709;52.036;5.906;2022-07-29T06:53:38;17.50;95.60
42031;DHT22;27709;52.036;5.906;2022-07-29T06:56:04;17.60;95.20
42031;DHT22;27709;52.036;5.906;2022-07-29T06:58:30;17.70;95.20
42031;DHT22;27709;52.036;5.906;2022-07-29T07:00:57;17.90;94.70
42031;DHT22;27709;52.036;5.906;2022-07-29T07:03:24;18.20;94.70
42031;DHT22;27709;52.036;5.906;2022-07-29T07:05:51;18.90;94.40
42031;DHT22;27709;52.036;5.906;2022-07-29T07:08:16;19.90;93.20
42031;DHT22;27709;52.036;5.906;2022-07-29T07:10:42;20.70;91.40
42031;DHT22;27709;52.036;5.906;2022-07-29T07:13:08;21.10;90.60
42031;DHT22;27709;52.036;5.906;2022-07-29T07:15:35;21.20;89.50
42031;DHT22;27709;52.036;5.906;2022-07-29T07:18:01;21.20;88.70
42031;DHT22;27709;52.036;5.906;2022-07-29T07:38:32;20.30;89.40
42031;DHT22;27709;52.036;5.906;2022-07-29T07:41:02;20.30;89.80
42031;DHT22;27709;52.036;5.906;2022-07-29T07:43:50;20.40;90.00
42031;DHT22;27709;52.036;5.906;2022-07-29T07:49:48;20.30;90.30
42031;DHT22;27709;52.036;5.906;2022-07-29T07:52:15;20.30;90.00
42031;DHT22;27709;52.036;5.906;2022-07-29T07:54:42;20.20;90.10
42031;DHT22;27709;52.036;5.906;2022-07-29T07:57:09;20.20;90.30
42031;DHT22;27709;52.036;5.906;2022-07-29T07:59:34;20.10;90.30
42031;DHT22;27709;52.036;5.906;2022-07-29T08:02:01;20.00;90.00
42031;DHT22;27709;52.036;5.906;2022-07-29T08:04:27;20.00;90.40
42031;DHT22;27709;52.036;5.906;2022-07-29T08:06:53;19.80;90.50
42031;DHT22;27709;52.036;5.906;2022-07-29T08:09:20;19.80;90.60
42031;DHT22;27709;52.036;5.906;2022-07-29T08:11:46;19.70;90.70
42031;DHT22;27709;52.036;5.906;2022-07-29T08:14:11;19.80;90.50
42031;DHT22;27709;52.036;5.906;2022-07-29T08:16:37;19.70;90.50
42031;DHT22;27709;52.036;5.906;2022-07-29T08:19:02;19.70;90.60
42031;DHT22;27709;52.036;5.906;2022-07-29T08:21:28;19.70;90.70
42031;DHT22;27709;52.036;5.906;2022-07-29T08:23:53;19.70;90.60
42031;DHT22;27709;52.036;5.906;2022-07-29T08:26:40;19.70;90.40
42031;DHT22;27709;52.036;5.906;2022-07-29T08:29:06;19.80;90.70
42031;DHT22;27709;52.036;5.906;2022-07-29T08:31:31;19.90;91.10
42031;DHT22;27709;52.036;5.906;2022-07-29T08:33:57;20.00;90.90
42031;DHT22;27709;52.036;5.906;2022-07-29T08:36:25;20.10;91.00
42031;DHT22;27709;52.036;5.906;2022-07-29T08:38:51;20.30;90.40
42031;DHT22;27709;52.036;5.906;2022-07-29T08:41:20;20.50;90.30
42031;DHT22;27709;52.036;5.906;2022-07-29T08:43:47;20.60;89.90
42031;DHT22;27709;52.036;5.906;2022-07-29T08:46:12;20.70;89.60
42031;DHT22;27709;52.036;5.906;2022-07-29T08:48:38;20.70;89.70
42031;DHT22;27709;52.036;5.906;2022-07-29T08:51:07;20.70;90.00
42031;DHT22;27709;52.036;5.906;2022-07-29T08:53:33;20.70;90.40
42031;DHT22;27709;52.036;5.906;2022-07-29T08:55:59;20.70;90.20
42031;DHT22;27709;52.036;5.906;2022-07-29T08:58:31;20.60;90.00
42031;DHT22;27709;52.036;5.906;2022-07-29T09:00:57;20.50;90.10
42031;DHT22;27709;52.036;5.906;2022-07-29T09:03:30;20.50;90.20
42031;DHT22;27709;52.036;5.906;2022-07-29T09:05:58;20.40;90.40
42031;DHT22;27709;52.036;5.906;2022-07-29T09:08:24;20.40;90.50
42031;DHT22;27709;52.036;5.906;2022-07-29T09:10:50;20.40;90.40
42031;DHT22;27709;52.036;5.906;2022-07-29T09:13:16;20.40;90.40
42031;DHT22;27709;52.036;5.906;2022-07-29T09:15:42;20.40;90.00
42031;DHT22;27709;52.036;5.906;2022-07-29T09:18:07;20.30;90.00
42031;DHT22;27709;52.036;5.906;2022-07-29T09:20:33;20.30;90.10
42031;DHT22;27709;52.036;5.906;2022-07-29T09:23:17;20.30;89.90
42031;DHT22;27709;52.036;5.906;2022-07-29T09:25:42;20.30;90.10
42031;DHT22;27709;52.036;5.906;2022-07-29T09:28:10;20.30;90.20
42031;DHT22;27709;52.036;5.906;2022-07-29T09:30:53;20.30;90.60
42031;DHT22;27709;52.036;5.906;2022-07-29T09:33:20;20.40;90.70
42031;DHT22;27709;52.036;5.906;2022-07-29T09:35:45;20.40;90.30
42031;DHT22;27709;52.036;5.906;2022-07-29T09:38:14;20.30;90.60
42031;DHT22;27709;52.036;5.906;2022-07-29T09:40:40;20.20;90.10
42031;DHT22;27709;52.036;5.906;2022-07-29T09:43:10;20.20;90.30
42031;DHT22;27709;52.036;5.906;2022-07-29T09:45:36;20.20;90.50
42031;DHT22;27709;52.036;5.906;2022-07-29T09:48:22;20.10;90.40
42031;DHT22;27709;52.036;5.906;2022-07-29T09:50:49;20.10;90.50
42031;DHT22;27709;52.036;5.906;2022-07-29T09:53:35;20.00;90.70
42031;DHT22;27709;52.036;5.906;2022-07-29T09:56:02;20.00;90.70
42031;DHT22;27709;52.036;5.906;2022-07-29T09:58:28;19.90;90.80
42031;DHT22;27709;52.036;5.906;2022-07-29T10:00:54;19.90;90.90
42031;DHT22;27709;52.036;5.906;2022-07-29T10:03:21;19.90;91.00
42031;DHT22;27709;52.036;5.906;2022-07-29T10:06:06;19.90;90.80
42031;DHT22;27709;52.036;5.906;2022-07-29T10:08:32;19.90;90.80
42031;DHT22;27709;52.036;5.906;2022-07-29T10:11:15;20.00;91.10
42031;DHT22;27709;52.036;5.906;2022-07-29T10:13:42;20.10;91.00
42031;DHT22;27709;52.036;5.906;2022-07-29T10:16:08;20.20;90.90
42031;DHT22;27709;52.036;5.906;2022-07-29T10:18:34;20.60;91.00
42031;DHT22;27709;52.036;5.906;2022-07-29T10:21:00;21.20;90.40
42031;DHT22;27709;52.036;5.906;2022-07-29T10:23:27;21.60;89.70
42031;DHT22;27709;52.036;5.906;2022-07-29T10:25:53;22.10;89.40
42031;DHT22;27709;52.036;5.906;2022-07-29T10:28:19;22.60;88.10
42031;DHT22;27709;52.036;5.906;2022-07-29T10:30:45;23.20;87.20
42031;DHT22;27709;52.036;5.906;2022-07-29T10:42:11;25.60;77.40
42031;DHT22;27709;52.036;5.906;2022-07-29T10:44:40;25.80;76.80
42031;DHT22;27709;52.036;5.906;2022-07-29T10:47:07;26.10;76.50
42031;DHT22;27709;52.036;5.906;2022-07-29T10:49:33;26.20;72.80
42031;DHT22;27709;52.036;5.906;2022-07-29T10:54:47;26.20;72.70
42031;DHT22;27709;52.036;5.906;2022-07-29T10:57:19;26.20;72.80
42031;DHT22;27709;52.036;5.906;2022-07-29T11:07:32;26.90;73.10
42031;DHT22;27709;52.036;5.906;2022-07-29T11:15:10;27.20;69.10
42031;DHT22;27709;52.036;5.906;2022-07-29T11:20:39;27.20;66.90
42031;DHT22;27709;52.036;5.906;2022-07-29T11:23:26;27.00;67.10
42031;DHT22;27709;52.036;5.906;2022-07-29T11:31:39;26.70;68.40
42031;DHT22;27709;52.036;5.906;2022-07-29T11:39:35;27.40;66.30
42031;DHT22;27709;52.036;5.906;2022-07-29T11:44:55;27.90;68.10
42031;DHT22;27709;52.036;5.906;2022-07-29T11:47:22;28.00;66.00
42031;DHT22;27709;52.036;5.906;2022-07-29T11:49:48;28.00;64.10
42031;DHT22;27709;52.036;5.906;2022-07-29T11:52:13;27.90;64.00
42031;DHT22;27709;52.036;5.906;2022-07-29T11:54:42;27.60;64.40
42031;DHT22;27709;52.036;5.906;2022-07-29T11:57:08;27.40;64.20
42031;DHT22;27709;52.036;5.906;2022-07-29T11:59:41;27.40;65.00
42031;DHT22;27709;52.036;5.906;2022-07-29T12:02:08;27.50;64.50
42031;DHT22;27709;52.036;5.906;2022-07-29T12:04:46;27.70;65.20
42031;DHT22;27709;52.036;5.906;2022-07-29T12:07:13;28.00;65.20
42031;DHT22;27709;52.036;5.906;2022-07-29T12:09:38;28.20;63.80
42031;DHT22;27709;52.036;5.906;2022-07-29T12:12:04;28.40;62.30
42031;DHT22;27709;52.036;5.906;2022-07-29T12:14:32;28.30;61.00
42031;DHT22;27709;52.036;5.906;2022-07-29T12:16:59;28.30;62.40
42031;DHT22;27709;52.036;5.906;2022-07-29T12:19:28;28.30;61.10
42031;DHT22;27709;52.036;5.906;2022-07-29T12:21:55;28.30;60.70
42031;DHT22;27709;52.036;5.906;2022-07-29T12:24:21;28.20;60.60
42031;DHT22;27709;52.036;5.906;2022-07-29T12:26:58;28.20;61.50
42031;DHT22;27709;52.036;5.906;2022-07-29T12:29:25;28.00;59.90
42031;DHT22;27709;52.036;5.906;2022-07-29T12:31:53;27.80;60.40
42031;DHT22;27709;52.036;5.906;2022-07-29T12:34:21;27.70;61.10
42031;DHT22;27709;52.036;5.906;2022-07-29T12:36:48;27.70;61.50
42031;DHT22;27709;52.036;5.906;2022-07-29T12:39:16;27.90;61.40
42031;DHT22;27709;52.036;5.906;2022-07-29T12:41:42;28.10;61.30
42031;DHT22;27709;52.036;5.906;2022-07-29T12:44:08;28.10;61.20
42031;DHT22;27709;52.036;5.906;2022-07-29T12:46:33;28.20;60.00
42031;DHT22;27709;52.036;5.906;2022-07-29T12:48:59;28.20;60.40
42031;DHT22;27709;52.036;5.906;2022-07-29T12:51:31;28.00;58.90
42031;DHT22;27709;52.036;5.906;2022-07-29T12:54:09;28.00;60.40
42031;DHT22;27709;52.036;5.906;2022-07-29T12:56:44;28.00;60.60
42031;DHT22;27709;52.036;5.906;2022-07-29T12:59:21;28.20;61.10
42031;DHT22;27709;52.036;5.906;2022-07-29T13:01:49;28.40;60.70
42031;DHT22;27709;52.036;5.906;2022-07-29T13:04:29;28.50;59.50
42031;DHT22;27709;52.036;5.906;2022-07-29T13:09:43;28.30;59.40
42031;DHT22;27709;52.036;5.906;2022-07-29T13:12:11;28.30;61.00
42031;DHT22;27709;52.036;5.906;2022-07-29T13:14:45;28.20;59.10
42031;DHT22;27709;52.036;5.906;2022-07-29T13:17:13;28.20;59.30
42031;DHT22;27709;52.036;5.906;2022-07-29T13:19:52;28.20;58.90
42031;DHT22;27709;52.036;5.906;2022-07-29T13:22:24;28.00;59.60
42031;DHT22;27709;52.036;5.906;2022-07-29T13:24:54;27.90;59.60
42031;DHT22;27709;52.036;5.906;2022-07-29T13:27:22;28.00;60.20
42031;DHT22;27709;52.036;5.906;2022-07-29T13:29:48;28.10;60.50
42031;DHT22;27709;52.036;5.906;2022-07-29T13:32:16;28.10;60.00
42031;DHT22;27709;52.036;5.906;2022-07-29T13:34:42;28.10;59.70
42031;DHT22;27709;52.036;5.906;2022-07-29T13:37:07;28.10;60.40
42031;DHT22;27709;52.036;5.906;2022-07-29T13:39:33;28.00;60.50
42031;DHT22;27709;52.036;5.906;2022-07-29T13:41:59;27.90;60.50
42031;DHT22;27709;52.036;5.906;2022-07-29T13:44:24;27.90;59.60
42031;DHT22;27709;52.036;5.906;2022-07-29T13:46:50;27.80;59.40
42031;DHT22;27709;52.036;5.906;2022-07-29T13:49:16;27.70;59.70
42031;DHT22;27709;52.036;5.906;2022-07-29T13:51:41;27.60;59.80
42031;DHT22;27709;52.036;5.906;2022-07-29T13:54:07;27.60;60.60
42031;DHT22;27709;52.036;5.906;2022-07-29T13:56:32;27.70;61.40
42031;DHT22;27709;52.036;5.906;2022-07-29T13:58:58;27.70;59.70
42031;DHT22;27709;52.036;5.906;2022-07-29T14:01:24;27.60;60.20
42031;DHT22;27709;52.036;5.906;2022-07-29T14:03:50;27.60;60.60
42031;DHT22;27709;52.036;5.906;2022-07-29T14:06:15;27.50;60.00
42031;DHT22;27709;52.036;5.906;2022-07-29T14:08:41;27.30;60.30
42031;DHT22;27709;52.036;5.906;2022-07-29T14:11:06;27.10;61.00
42031;DHT22;27709;52.036;5.906;2022-07-29T14:13:32;26.80;61.50
42031;DHT22;27709;52.036;5.906;2022-07-29T14:15:58;26.60;62.00
42031;DHT22;27709;52.036;5.906;2022-07-29T14:18:23;26.40;62.10
42031;DHT22;27709;52.036;5.906;2022-07-29T14:20:49;26.20;62.50
42031;DHT22;27709;52.036;5.906;2022-07-29T14:23:15;26.10;62.90
42031;DHT22;27709;52.036;5.906;2022-07-29T14:25:41;26.00;62.70
42031;DHT22;27709;52.036;5.906;2022-07-29T14:28:06;26.00;62.60
42031;DHT22;27709;52.036;5.906;2022-07-29T14:30:32;25.90;62.50
42031;DHT22;27709;52.036;5.906;2022-07-29T14:32:57;25.90;62.70
42031;DHT22;27709;52.036;5.906;2022-07-29T14:35:23;25.90;63.10
42031;DHT22;27709;52.036;5.906;2022-07-29T14:37:49;26.00;63.00
42031;DHT22;27709;52.036;5.906;2022-07-29T14:40:14;26.10;62.20
42031;DHT22;27709;52.036;5.906;2022-07-29T14:42:40;26.10;61.90
42031;DHT22;27709;52.036;5.906;2022-07-29T14:45:07;26.20;62.10
42031;DHT22;27709;52.036;5.906;2022-07-29T14:47:33;26.40;62.40
42031;DHT22;27709;52.036;5.906;2022-07-29T14:49:59;26.60;60.70
42031;DHT22;27709;52.036;5.906;2022-07-29T14:52:25;26.70;59.90
42031;DHT22;27709;52.036;5.906;2022-07-29T14:54:50;26.70;60.00
42031;DHT22;27709;52.036;5.906;2022-07-29T14:57:16;26.60;60.30
42031;DHT22;27709;52.036;5.906;2022-07-29T14:59:41;26.40;60.70
42031;DHT22;27709;52.036;5.906;2022-07-29T15:02:07;26.40;61.20
42031;DHT22;27709;52.036;5.906;2022-07-29T15:04:33;26.50;61.50
42031;DHT22;27709;52.036;5.906;2022-07-29T15:06:58;26.60;60.40
42031;DHT22;27709;52.036;5.906;2022-07-29T15:09:24;26.70;60.00
42031;DHT22;27709;52.036;5.906;2022-07-29T15:11:49;26.70;59.20
42031;DHT22;27709;52.036;5.906;2022-07-29T15:14:15;26.70;59.40
42031;DHT22;27709;52.036;5.906;2022-07-29T15:16:41;26.70;59.20
42031;DHT22;27709;52.036;5.906;2022-07-29T15:19:08;26.80;59.40
42031;DHT22;27709;52.036;5.906;2022-07-29T15:21:33;26.80;59.20
42031;DHT22;27709;52.036;5.906;2022-07-29T15:24:02;26.80;59.70
42031;DHT22;27709;52.036;5.906;2022-07-29T15:26:27;26.80;59.70
42031;DHT22;27709;52.036;5.906;2022-07-29T15:28:53;26.90;59.50
42031;DHT22;27709;52.036;5.906;2022-07-29T15:31:20;27.00;59.90
42031;DHT22;27709;52.036;5.906;2022-07-29T15:33:46;27.20;60.40
42031;DHT22;27709;52.036;5.906;2022-07-29T15:36:11;27.10;60.50
42031;DHT22;27709;52.036;5.906;2022-07-29T15:38:38;27.10;60.70
42031;DHT22;27709;52.036;5.906;2022-07-29T15:41:06;27.00;60.90
42031;DHT22;27709;52.036;5.906;2022-07-29T15:43:31;26.80;61.20
42031;DHT22;27709;52.036;5.906;2022-07-29T15:45:57;26.70;61.80
42031;DHT22;27709;52.036;5.906;2022-07-29T15:48:41;26.50;62.10
42031;DHT22;27709;52.036;5.906;2022-07-29T15:51:07;26.40;62.20
42031;DHT22;27709;52.036;5.906;2022-07-29T15:53:32;26.20;62.80
42031;DHT22;27709;52.036;5.906;2022-07-29T15:55:58;26.00;63.30
42031;DHT22;27709;52.036;5.906;2022-07-29T15:58:23;25.90;64.00
42031;DHT22;27709;52.036;5.906;2022-07-29T16:00:49;25.80;64.70
42031;DHT22;27709;52.036;5.906;2022-07-29T16:03:15;25.60;65.20
42031;DHT22;27709;52.036;5.906;2022-07-29T16:05:41;25.50;65.80
42031;DHT22;27709;52.036;5.906;2022-07-29T16:08:07;25.40;66.40
42031;DHT22;27709;52.036;5.906;2022-07-29T16:10:32;25.30;66.60
42031;DHT22;27709;52.036;5.906;2022-07-29T16:12:58;25.20;67.00
42031;DHT22;27709;52.036;5.906;2022-07-29T16:15:23;25.10;67.10
42031;DHT22;27709;52.036;5.906;2022-07-29T16:17:49;25.00;67.00
42031;DHT22;27709;52.036;5.906;2022-07-29T16:20:15;24.90;67.00
42031;DHT22;27709;52.036;5.906;2022-07-29T16:22:41;24.80;67.10
42031;DHT22;27709;52.036;5.906;2022-07-29T16:25:07;24.70;67.20
42031;DHT22;27709;52.036;5.906;2022-07-29T16:27:33;24.70;68.00
42031;DHT22;27709;52.036;5.906;2022-07-29T16:29:59;24.60;68.00
42031;DHT22;27709;52.036;5.906;2022-07-29T16:32:24;24.60;67.90
42031;DHT22;27709;52.036;5.906;2022-07-29T16:34:50;24.50;68.20
42031;DHT22;27709;52.036;5.906;2022-07-29T16:37:15;24.50;68.60
42031;DHT22;27709;52.036;5.906;2022-07-29T16:39:42;24.50;68.10
42031;DHT22;27709;52.036;5.906;2022-07-29T16:42:07;24.40;68.00
42031;DHT22;27709;52.036;5.906;2022-07-29T16:44:33;24.30;68.40
42031;DHT22;27709;52.036;5.906;2022-07-29T16:46:59;24.20;68.60
42031;DHT22;27709;52.036;5.906;2022-07-29T16:49:25;24.20;69.10